Time;durP1;ratioP1;P1;durP2;ratioP2;P2;SDS_P1;SDS_P2;PMS_P1;PMS_P2;Temp;Humidity;BMP_temperature;BMP_pressure;BME280_temperature;BME280_humidity;BME280_pressure;Samples;Min_cycle;Max_cycle;Signal;HPM_P1;HPM_P2
2023/04/04 00:03:54;;;;;;;3.95;2.40;;;;;;;2.27;78.75;103024.53;10375039;28;20038;-74
2023/04/04 00:08:55;;;;;;;2.95;2.67;;;;;;;2.10;77.00;103018.34;10373550;28;20125;-74
2023/04/04 00:13:56;;;;;;;2.90;2.70;;;;;;;1.90;77.16;103020.47;10373216;28;20049;-74
2023/04/04 00:18:56;;;;;;;5.20;3.33;;;;;;;1.90;78.06;103026.69;10389743;28;20064;-76
2023/04/04 00:23:57;;;;;;;3.63;3.33;;;;;;;2.09;80.58;103015.78;10374957;28;20038;-74
2023/04/04 00:28:57;;;;;;;3.55;3.25;;;;;;;2.14;80.10;103010.16;10374668;28;20394;-75
2023/04/04 00:33:58;;;;;;;7.70;2.95;;;;;;;2.13;79.46;103008.44;10374961;28;20120;-75
2023/04/04 00:38:58;;;;;;;3.85;3.50;;;;;;;2.05;79.51;103008.91;10373109;28;20030;-75
2023/04/04 00:43:59;;;;;;;5.57;4.32;;;;;;;2.01;79.94;102999.31;10375224;28;20042;-74
2023/04/04 00:48:59;;;;;;;3.60;2.95;;;;;;;1.95;78.82;103007.72;10372404;28;20053;-74
2023/04/04 00:54:00;;;;;;;7.65;2.63;;;;;;;1.81;78.69;103013.84;10373836;28;20129;-74
2023/04/04 00:59:01;;;;;;;3.47;3.15;;;;;;;1.76;78.56;103003.44;10373837;28;20429;-74
2023/04/04 01:04:02;;;;;;;3.83;3.53;;;;;;;1.69;79.13;103007.44;10372280;28;20428;-75
2023/04/04 01:09:02;;;;;;;5.25;4.03;;;;;;;1.66;79.44;102998.69;10373870;28;20033;-74
2023/04/04 01:14:03;;;;;;;2.83;2.63;;;;;;;1.65;80.96;102991.66;10387971;28;20468;-76
2023/04/04 01:19:03;;;;;;;5.38;3.50;;;;;;;1.70;85.52;102992.25;10371478;28;20034;-74
2023/04/04 01:24:04;;;;;;;8.00;3.95;;;;;;;1.70;94.40;102986.91;10392429;28;20033;-74
2023/04/04 01:29:05;;;;;;;3.90;3.28;;;;;;;1.77;94.93;102986.47;10380099;28;20038;-75
2023/04/04 01:34:30;;;;;;;6.32;4.45;;;;;;;1.81;93.10;102990.66;10379457;28;20054;-74
2023/04/04 01:39:34;;;;;;;4.78;4.18;;;;;;;1.73;94.21;102992.94;10380465;28;20029;-75
2023/04/04 01:44:35;;;;;;;4.60;3.58;;;;;;;1.70;92.40;102978.91;10396674;28;20091;-75
2023/04/04 01:49:35;;;;;;;8.75;3.75;;;;;;;1.66;92.07;102980.91;10395604;28;20041;-74
2023/04/04 01:54:36;;;;;;;5.15;3.35;;;;;;;1.58;92.98;102993.81;10382749;28;20442;-76
2023/04/04 01:59:36;;;;;;;6.60;4.78;;;;;;;1.53;92.53;102986.06;10381209;28;20022;-75
2023/04/04 02:04:36;;;;;;;4.43;4.03;;;;;;;1.48;91.74;102996.13;10378665;28;20030;-74
2023/04/04 02:09:37;;;;;;;5.97;3.78;;;;;;;1.34;91.27;102996.03;10379699;28;20022;-74
2023/04/04 02:14:37;;;;;;;5.35;3.65;;;;;;;1.29;91.10;102998.13;10361913;28;20034;-75
2023/04/04 02:19:38;;;;;;;6.15;4.15;;;;;;;1.21;91.25;102997.66;10380992;28;20358;-75
2023/04/04 02:24:38;;;;;;;4.53;4.13;;;;;;;1.16;94.30;102995.28;10362296;28;20045;-75
2023/04/04 02:29:38;;;;;;;6.65;4.90;;;;;;;1.13;98.74;102998.97;10379123;28;20037;-74
2023/04/04 02:34:39;;;;;;;5.35;4.18;;;;;;;1.10;100.00;103014.28;10378251;28;20052;-74
2023/04/04 02:39:39;;;;;;;10.25;5.30;;;;;;;1.11;100.00;103000.00;10378557;28;20479;-74
2023/04/04 02:44:40;;;;;;;4.28;3.72;;;;;;;0.98;100.00;102991.78;10378768;28;20057;-74
2023/04/04 02:49:40;;;;;;;4.85;3.90;;;;;;;0.91;100.00;102974.41;10378496;28;20026;-74
2023/04/04 02:54:41;;;;;;;5.18;4.30;;;;;;;0.87;100.00;102970.19;10376612;28;20033;-74
2023/04/04 02:59:42;;;;;;;7.53;3.90;;;;;;;0.80;100.00;102971.44;10378206;28;20030;-74
2023/04/04 03:04:42;;;;;;;6.18;3.92;;;;;;;0.69;100.00;102967.56;10376952;28;20038;-74
2023/04/04 03:09:44;;;;;;;4.32;3.83;;;;;;;0.65;100.00;102971.34;10380154;28;20026;-74
2023/04/04 03:14:44;;;;;;;7.32;5.32;;;;;;;0.58;97.89;102969.09;10378240;28;20026;-76
2023/04/04 03:19:45;;;;;;;7.85;4.78;;;;;;;0.44;95.70;102978.66;10375842;28;20030;-74
2023/04/04 03:24:45;;;;;;;5.68;5.05;;;;;;;0.27;94.56;102976.03;10375298;28;20473;-74
2023/04/04 03:29:45;;;;;;;8.48;5.30;;;;;;;0.10;94.38;102979.56;10376140;28;20021;-74
2023/04/04 03:34:46;;;;;;;6.45;5.35;;;;;;;-0.04;94.77;102990.03;10376495;28;20481;-74
2023/04/04 03:39:46;;;;;;;7.28;4.97;;;;;;;-0.17;93.81;102997.78;10374821;28;20058;-75
2023/04/04 03:44:47;;;;;;;6.78;5.20;;;;;;;-0.22;93.81;102991.84;10375861;28;20033;-75
2023/04/04 03:49:50;;;;;;;8.30;5.32;;;;;;;-0.29;94.05;102996.63;10391288;28;20056;-75
2023/04/04 03:54:50;;;;;;;7.05;4.50;;;;;;;-0.09;94.83;102981.44;10376227;28;20033;-74
2023/04/04 03:59:51;;;;;;;9.90;5.40;;;;;;;-0.11;93.19;102984.16;10376068;28;20480;-74
2023/04/04 04:04:51;;;;;;;7.47;5.95;;;;;;;-0.09;93.32;102974.31;10375870;28;20029;-74
2023/04/04 04:09:52;;;;;;;6.65;5.18;;;;;;;-0.23;91.86;102987.44;10390782;28;20102;-74
2023/04/04 04:14:52;;;;;;;7.13;4.43;;;;;;;-0.44;91.84;102986.72;10389994;28;20030;-75
2023/04/04 04:19:52;;;;;;;9.15;5.57;;;;;;;-0.58;92.81;102989.16;10373921;28;20033;-74
2023/04/04 04:24:53;;;;;;;5.65;5.18;;;;;;;-0.59;93.13;102985.66;10374501;28;20516;-74
2023/04/04 04:29:53;;;;;;;7.45;5.05;;;;;;;-0.63;92.98;102991.19;10373117;28;20029;-75
2023/04/04 04:34:54;;;;;;;13.60;5.15;;;;;;;-0.70;92.11;102985.31;10375421;28;20128;-75
2023/04/04 04:39:54;;;;;;;10.82;5.05;;;;;;;-0.71;93.04;102997.72;10372839;28;20029;-77
2023/04/04 04:44:55;;;;;;;6.18;4.57;;;;;;;-0.77;92.14;102975.88;10373911;28;20092;-76
2023/04/04 04:49:55;;;;;;;9.77;6.45;;;;;;;-0.48;93.70;102982.44;10372819;28;20113;-75
2023/04/04 04:54:56;;;;;;;5.65;5.18;;;;;;;-0.32;93.10;102998.53;10388180;28;20462;-76
2023/04/04 04:59:56;;;;;;;11.68;5.55;;;;;;;-0.45;92.69;103000.06;10394072;28;20042;-75
2023/04/04 05:04:57;;;;;;;8.48;6.13;;;;;;;-0.47;93.27;102973.56;10381762;28;20088;-74
2023/04/04 05:09:57;;;;;;;6.00;5.32;;;;;;;-0.45;92.65;102982.31;10381016;28;20061;-77
2023/04/04 05:14:58;;;;;;;9.98;5.10;;;;;;;-0.50;92.95;102989.66;10381576;28;20430;-75
2023/04/04 05:19:58;;;;;;;6.70;6.00;;;;;;;-0.42;93.94;103008.78;10397740;28;20045;-75
2023/04/04 05:24:58;;;;;;;9.52;6.15;;;;;;;-0.40;93.92;103003.38;10381023;28;20076;-76
2023/04/04 05:29:59;;;;;;;11.18;4.88;;;;;;;-0.43;93.68;103007.06;10380913;28;20466;-75
2023/04/04 05:35:00;;;;;;;16.08;5.70;;;;;;;-0.37;93.92;103005.91;10396095;28;20053;-75
2023/04/04 05:40:00;;;;;;;6.93;6.18;;;;;;;-0.29;94.38;103001.06;10380837;28;20478;-75
2023/04/04 05:45:01;;;;;;;6.15;5.30;;;;;;;-0.18;95.12;103016.50;10379087;28;20045;-76
2023/04/04 05:50:01;;;;;;;9.35;5.93;;;;;;;-0.14;96.02;103012.75;10379866;28;20168;-75
2023/04/04 05:55:02;;;;;;;6.13;5.35;;;;;;;-0.08;96.07;103007.13;10380029;28;20117;-77
2023/04/04 06:00:04;;;;;;;8.38;6.55;;;;;;;0.10;96.00;103026.66;10379755;28;20036;-76
2023/04/04 06:05:05;;;;;;;16.48;6.10;;;;;;;0.25;95.76;103006.34;10379906;28;20566;-76
2023/04/04 06:10:07;;;;;;;7.82;6.95;;;;;;;1.72;99.07;102998.34;10379116;28;20026;-75
2023/04/04 06:15:08;;;;;;;10.50;7.63;;;;;;;3.07;98.89;102995.56;10378384;28;20037;-79
2023/04/04 06:20:09;;;;;;;9.77;7.25;;;;;;;4.41;97.49;102999.19;10394707;28;20045;-77
2023/04/04 06:25:09;;;;;;;8.57;7.32;;;;;;;5.33;96.63;102998.91;10394383;28;20026;-77
2023/04/04 06:30:10;;;;;;;10.75;7.07;;;;;;;6.34;96.89;103000.38;10377139;28;20454;-76
2023/04/04 06:35:11;;;;;;;5.80;4.70;;;;;;;6.98;95.27;103008.78;10393387;28;20069;-77
2023/04/04 06:40:12;;;;;;;5.85;4.50;;;;;;;7.27;95.73;103000.22;10377149;28;20057;-76
2023/04/04 06:45:13;;;;;;;8.10;5.43;;;;;;;7.47;96.89;102985.97;10392410;28;20030;-78
2023/04/04 06:50:14;;;;;;;5.80;5.15;;;;;;;7.42;94.00;102991.72;10393658;28;20120;-76
2023/04/04 06:55:15;;;;;;;5.53;5.05;;;;;;;8.09;90.16;102989.81;10393302;28;20036;-76
2023/04/04 07:00:15;;;;;;;6.40;4.60;;;;;;;8.90;84.73;102987.34;10376378;28;20454;-77
2023/04/04 07:05:16;;;;;;;5.72;5.00;;;;;;;9.79;80.79;102991.00;10375743;28;20121;-78
2023/04/04 07:10:17;;;;;;;8.57;6.65;;;;;;;9.68;74.79;103005.53;10377085;28;20125;-76
2023/04/04 07:15:17;;;;;;;4.43;4.03;;;;;;;10.44;76.14;102999.44;10374948;28;20354;-76
2023/04/04 07:20:18;;;;;;;7.07;2.78;;;;;;;10.80;61.23;103002.34;10391110;28;20044;-79
2023/04/04 07:25:18;;;;;;;5.18;3.80;;;;;;;9.92;64.54;102996.13;10374337;28;20091;-77
2023/04/04 07:30:20;;;;;;;7.60;4.15;;;;;;;10.34;63.32;103007.56;10391484;28;20377;-76
2023/04/04 07:35:20;;;;;;;4.57;3.78;;;;;;;10.24;64.89;103006.66;10376009;28;20053;-78
2023/04/04 07:40:21;;;;;;;7.20;4.80;;;;;;;11.02;62.07;103003.81;10375899;28;20504;-77
2023/04/04 07:45:21;;;;;;;6.25;4.63;;;;;;;11.61;63.09;103002.50;10375564;28;20065;-76
2023/04/04 07:50:22;;;;;;;4.55;3.90;;;;;;;11.78;58.79;103007.09;10375416;28;20469;-76
2023/04/04 07:55:24;;;;;;;7.20;4.65;;;;;;;11.28;56.98;103006.69;10375997;28;20120;-76
2023/04/04 08:00:25;;;;;;;10.02;4.80;;;;;;;11.66;57.30;102999.34;10375579;28;20029;-76
2023/04/04 08:05:25;;;;;;;7.85;4.55;;;;;;;12.19;53.83;102996.66;10374727;28;20128;-76
2023/04/04 08:10:26;;;;;;;4.47;3.40;;;;;;;12.91;54.06;102991.88;10373676;28;20116;-77
2023/04/04 08:15:26;;;;;;;4.40;3.17;;;;;;;13.57;54.03;102984.88;10374626;28;20041;-76
2023/04/04 08:20:27;;;;;;;4.65;4.20;;;;;;;13.92;47.92;102982.88;10374761;28;20092;-76
2023/04/04 08:25:28;;;;;;;3.50;2.42;;;;;;;14.16;54.54;102985.59;10373232;28;20072;-75
2023/04/04 08:30:28;;;;;;;6.32;3.72;;;;;;;14.86;53.48;102976.00;10374242;28;20036;-76
2023/04/04 08:35:29;;;;;;;5.30;3.10;;;;;;;15.07;48.72;102979.00;10372457;28;20537;-75
2023/04/04 08:40:30;;;;;;;3.67;3.05;;;;;;;15.37;45.62;102983.81;10373783;28;20474;-77
2023/04/04 08:45:32;;;;;;;3.72;2.63;;;;;;;15.71;48.25;102975.28;10373452;28;20125;-75
2023/04/04 08:50:32;;;;;;;3.97;2.95;;;;;;;14.48;37.81;102974.84;10371920;28;20089;-76
2023/04/04 08:55:32;;;;;;;3.72;3.17;;;;;;;14.18;37.79;102986.28;10372516;28;20026;-75
2023/04/04 09:00:33;;;;;;;6.43;3.47;;;;;;;13.83;37.18;102978.44;10389172;28;20445;-75
2023/04/04 09:05:33;;;;;;;4.80;3.28;;;;;;;14.11;43.22;102974.38;10371984;28;20063;-77
2023/04/04 09:10:36;;;;;;;3.33;2.53;;;;;;;14.02;35.64;102975.41;10372125;28;20026;-76
2023/04/04 09:15:37;;;;;;;8.27;3.63;;;;;;;13.00;42.34;102968.31;10389082;28;20048;-76
2023/04/04 09:20:41;;;;;;;6.95;2.95;;;;;;;12.35;37.60;102979.66;10371876;28;20033;-76
2023/04/04 09:25:53;;;;;;;11.32;3.88;;;;;;;12.16;36.38;102968.97;10371282;28;20041;-78
2023/04/04 09:30:53;;;;;;;3.70;2.78;;;;;;;13.27;37.04;102969.97;10372139;28;20034;-76
2023/04/04 09:35:58;;;;;;;3.40;3.10;;;;;;;13.10;35.71;102968.19;10355285;28;20420;-76
2023/04/04 09:40:58;;;;;;;4.28;3.17;;;;;;;12.92;36.15;102970.97;10373194;28;20030;-76
2023/04/04 09:45:59;;;;;;;3.45;3.15;;;;;;;13.33;36.59;102979.34;10376684;28;20033;-76
2023/04/04 09:50:59;;;;;;;5.68;3.83;;;;;;;12.96;37.87;102967.78;10380155;28;20109;-75
2023/04/04 09:56:01;;;;;;;5.22;3.70;;;;;;;13.88;35.08;102960.59;10378216;28;20022;-75
2023/04/04 10:01:03;;;;;;;8.32;2.88;;;;;;;14.16;36.39;102966.53;10379675;28;20450;-77
2023/04/04 10:06:09;;;;;;;2.80;2.58;;;;;;;14.63;34.45;102960.38;10378208;28;20036;-76
2023/04/04 10:11:09;;;;;;;3.85;3.25;;;;;;;14.25;33.51;102961.94;10394500;28;20454;-76
2023/04/04 10:16:10;;;;;;;3.88;3.58;;;;;;;14.56;38.29;102955.81;10379179;28;20034;-75
2023/04/04 10:21:10;;;;;;;2.47;2.28;;;;;;;14.81;34.39;102960.16;10378144;28;20096;-76
2023/04/04 10:26:11;;;;;;;3.30;3.05;;;;;;;14.57;35.96;102946.59;10378668;28;20038;-76
2023/04/04 10:31:21;;;;;;;9.40;3.38;;;;;;;14.61;34.37;102951.53;10393301;28;20058;-78
2023/04/04 10:36:22;;;;;;;4.88;4.35;;;;;;;15.01;34.03;102943.38;10377500;28;20030;-76
2023/04/04 10:41:23;;;;;;;4.65;3.85;;;;;;;14.79;33.58;102942.28;10376480;28;20018;-76
2023/04/04 10:46:29;;;;;;;8.50;3.90;;;;;;;14.49;32.85;102943.88;10377204;28;20365;-76
2023/04/04 10:51:30;;;;;;;5.97;3.38;;;;;;;14.04;33.09;102937.06;10377746;28;20034;-77
2023/04/04 10:56:31;;;;;;;5.70;2.78;;;;;;;13.90;35.61;102934.00;10375525;28;20026;-75
2023/04/04 11:01:48;;;;;;;7.32;3.40;;;;;;;15.47;37.28;102918.91;10393744;28;20026;-78
2023/04/04 11:07:14;;;;;;;4.15;3.20;;;;;;;15.99;32.72;102912.75;10377325;28;20030;-78
2023/04/04 11:12:22;;;;;;;7.00;4.13;;;;;;;14.70;32.43;102914.16;10377087;28;20063;-76
2023/04/04 11:17:57;;;;;;;4.05;3.65;;;;;;;15.28;36.19;102901.09;10361621;28;20283;-76
2023/04/04 11:23:04;;;;;;;5.22;4.20;;;;;;;15.17;31.69;102901.53;10376326;28;20125;-76
2023/04/04 11:28:06;;;;;;;3.15;2.85;;;;;;;15.13;32.11;102892.84;10376053;28;20121;-76
2023/04/04 11:33:07;;;;;;;3.92;3.63;;;;;;;14.78;34.42;102886.03;10390319;28;20038;-77
2023/04/04 11:38:14;;;;;;;4.10;3.75;;;;;;;15.87;38.06;102876.81;10375179;28;20074;-77
2023/04/04 11:43:15;;;;;;;3.90;3.50;;;;;;;15.93;30.37;102883.44;10375969;28;20034;-77
2023/04/04 11:48:17;;;;;;;3.75;3.45;;;;;;;15.24;33.41;102888.84;10374523;28;20113;-76
2023/04/04 11:53:18;;;;;;;7.20;3.55;;;;;;;15.26;32.78;102874.00;10373771;28;20342;-77
2023/04/04 11:58:19;;;;;;;3.78;3.47;;;;;;;15.07;32.51;102863.53;10390238;28;20033;-77
2023/04/04 12:03:20;;;;;;;9.30;3.75;;;;;;;15.51;34.36;102852.00;10374642;28;20168;-76
2023/04/04 12:08:22;;;;;;;6.68;3.65;;;;;;;15.73;30.15;102853.00;10390664;28;20026;-76
2023/04/04 12:13:31;;;;;;;6.32;3.47;;;;;;;14.94;31.30;102857.81;10357707;28;20180;-77
2023/04/04 12:18:32;;;;;;;3.83;3.53;;;;;;;15.01;30.84;102846.00;10389614;28;20393;-77
2023/04/04 12:23:35;;;;;;;3.88;3.38;;;;;;;16.04;32.94;102847.44;10373475;28;20029;-76
2023/04/04 12:28:38;;;;;;;8.15;3.50;;;;;;;15.79;32.39;102835.88;10376248;28;20066;-76
2023/04/04 12:33:41;;;;;;;14.10;3.08;;;;;;;16.50;37.76;102833.63;10390355;28;20049;-80
2023/04/04 12:38:59;;;;;;;4.10;3.72;;;;;;;17.20;36.62;102826.69;10375816;28;20076;-76
2023/04/04 12:44:01;;;;;;;5.22;4.47;;;;;;;17.41;37.87;102826.69;10373030;28;20353;-77
2023/04/04 12:49:03;;;;;;;4.28;3.50;;;;;;;17.47;38.70;102824.22;10389274;28;20165;-77
2023/04/04 12:54:04;;;;;;;3.55;3.25;;;;;;;16.24;31.12;102801.25;10373966;28;20026;-77
2023/04/04 12:59:08;;;;;;;4.30;3.90;;;;;;;14.93;31.23;102798.81;10389325;28;20422;-76
2023/04/04 13:04:08;;;;;;;7.47;5.07;;;;;;;15.02;36.54;102795.84;10388094;28;20034;-77
2023/04/04 13:09:15;;;;;;;7.00;4.60;;;;;;;16.07;37.04;102781.47;10373678;28;20128;-76
2023/04/04 13:14:16;;;;;;;3.90;3.40;;;;;;;17.07;39.38;102777.25;10373417;28;20478;-77
2023/04/04 13:19:16;;;;;;;6.57;3.95;;;;;;;16.60;36.74;102770.41;10393520;28;20061;-77
2023/04/04 13:24:17;;;;;;;4.65;3.85;;;;;;;16.11;33.08;102771.84;10382236;28;20095;-78
2023/04/04 13:29:17;;;;;;;3.55;2.97;;;;;;;15.58;35.81;102758.22;10381494;28;20034;-77
2023/04/04 13:34:20;;;;;;;5.82;4.13;;;;;;;16.33;37.78;102758.28;10382041;28;20478;-77
2023/04/04 13:39:20;;;;;;;7.25;3.78;;;;;;;16.39;32.65;102752.03;10396299;28;20018;-79
2023/04/04 13:44:21;;;;;;;3.97;3.20;;;;;;;16.16;35.59;102741.25;10379755;28;20033;-78
2023/04/04 13:49:21;;;;;;;4.78;4.32;;;;;;;16.00;38.27;102742.28;10364103;28;20034;-77
2023/04/04 13:54:22;;;;;;;5.28;3.80;;;;;;;15.51;31.57;102731.84;10380577;28;20030;-77
2023/04/04 13:59:22;;;;;;;3.63;3.22;;;;;;;15.27;36.92;102730.19;10380276;28;20041;-77
2023/04/04 14:04:22;;;;;;;8.30;3.95;;;;;;;14.80;33.38;102712.13;10380192;28;20072;-77
2023/04/04 14:09:23;;;;;;;9.38;3.40;;;;;;;14.73;36.42;102716.63;10395027;28;20105;-77
2023/04/04 14:14:23;;;;;;;4.18;3.83;;;;;;;14.86;37.54;102716.84;10379374;28;20432;-77
2023/04/04 14:19:24;;;;;;;5.05;3.28;;;;;;;14.15;33.75;102718.78;10378989;28;20057;-76
2023/04/04 14:24:24;;;;;;;5.40;3.53;;;;;;;13.69;35.34;102699.53;10362175;28;20034;-78
2023/04/04 14:29:25;;;;;;;4.57;3.72;;;;;;;14.53;38.46;102702.59;10378357;28;20025;-77
2023/04/04 14:34:26;;;;;;;3.15;2.90;;;;;;;15.14;34.02;102691.75;10376725;28;20096;-77
2023/04/04 14:39:27;;;;;;;4.05;3.35;;;;;;;14.44;32.56;102701.75;10379720;28;20426;-77
2023/04/04 14:44:27;;;;;;;4.03;3.63;;;;;;;14.23;31.71;102686.06;10376612;28;20022;-77
2023/04/04 14:49:27;;;;;;;7.88;3.63;;;;;;;13.71;34.46;102684.69;10378349;28;20541;-79
2023/04/04 14:54:28;;;;;;;4.75;3.10;;;;;;;13.58;36.69;102678.97;10376963;28;20030;-80
2023/04/04 14:59:28;;;;;;;3.80;3.38;;;;;;;13.23;38.39;102670.13;10378130;28;20446;-76
2023/04/04 15:04:29;;;;;;;3.30;3.00;;;;;;;13.28;39.08;102663.38;10393585;28;20084;-76
2023/04/04 15:09:29;;;;;;;4.35;3.72;;;;;;;13.23;38.80;102656.53;10378402;28;20061;-77
2023/04/04 15:14:30;;;;;;;5.93;3.67;;;;;;;13.04;40.04;102662.34;10375718;28;20077;-79
2023/04/04 15:19:30;;;;;;;9.68;3.72;;;;;;;12.65;40.15;102649.41;10376488;28;20091;-77
2023/04/04 15:24:31;;;;;;;5.22;4.30;;;;;;;12.30;41.07;102653.25;10376966;28;20033;-77
2023/04/04 15:29:31;;;;;;;4.65;3.97;;;;;;;12.07;42.32;102653.03;10378106;28;20033;-76
2023/04/04 15:34:31;;;;;;;3.35;3.03;;;;;;;11.64;43.08;102649.41;10377618;28;20092;-76
2023/04/04 15:39:33;;;;;;;11.45;5.57;;;;;;;11.45;43.98;102641.50;10381642;28;20045;-78
2023/04/04 15:44:33;;;;;;;4.75;3.40;;;;;;;11.44;44.30;102642.53;10379544;28;20067;-79
2023/04/04 15:49:33;;;;;;;7.00;4.65;;;;;;;11.45;44.79;102636.06;10376663;28;20053;-78
2023/04/04 15:54:34;;;;;;;6.90;4.38;;;;;;;11.50;45.00;102647.31;10376118;28;20037;-77
2023/04/04 15:59:34;;;;;;;6.53;4.75;;;;;;;11.47;45.74;102634.06;10376392;28;20026;-76
2023/04/04 16:04:35;;;;;;;5.57;3.80;;;;;;;11.69;45.79;102638.94;10390559;28;20425;-76
2023/04/04 16:09:35;;;;;;;6.15;3.72;;;;;;;11.43;46.51;102636.25;10373757;28;20022;-76
2023/04/04 16:14:35;;;;;;;9.68;4.70;;;;;;;11.42;46.48;102620.97;10390721;28;20057;-78
2023/04/04 16:19:36;;;;;;;4.28;3.72;;;;;;;11.39;46.70;102619.44;10376150;28;20056;-78
2023/04/04 16:24:36;;;;;;;11.13;4.75;;;;;;;11.16;47.07;102629.97;10375359;28;20057;-77
2023/04/04 16:29:37;;;;;;;6.28;4.47;;;;;;;10.92;47.42;102616.25;10390082;28;20491;-76
2023/04/04 16:34:37;;;;;;;11.18;5.18;;;;;;;10.78;47.62;102608.66;10372923;28;20143;-76
2023/04/04 16:39:38;;;;;;;5.70;3.97;;;;;;;10.56;47.74;102610.00;10373225;28;20077;-79
2023/04/04 16:44:38;;;;;;;11.77;4.55;;;;;;;10.27;48.64;102611.09;10373684;28;20441;-77
2023/04/04 16:49:39;;;;;;;7.00;5.25;;;;;;;9.93;49.84;102614.41;10374454;28;20029;-77
2023/04/04 16:54:41;;;;;;;7.85;5.30;;;;;;;9.78;49.73;102610.50;10389782;28;20095;-76
2023/04/04 16:59:42;;;;;;;8.77;4.82;;;;;;;9.58;50.40;102606.22;10390215;28;20104;-77
2023/04/04 17:04:43;;;;;;;12.57;4.93;;;;;;;9.18;52.05;102607.31;10376324;28;20521;-76
2023/04/04 17:09:44;;;;;;;6.15;4.53;;;;;;;9.10;52.13;102609.94;10379510;28;20117;-76
2023/04/04 17:14:44;;;;;;;8.50;5.05;;;;;;;9.00;52.55;102605.38;10376599;28;20033;-76
2023/04/04 17:19:45;;;;;;;8.50;5.93;;;;;;;8.91;53.44;102600.84;10375790;28;20034;-76
2023/04/04 17:24:45;;;;;;;13.25;6.07;;;;;;;8.76;54.08;102605.84;10377430;28;20077;-76
2023/04/04 17:29:45;;;;;;;10.23;5.75;;;;;;;8.66;54.26;102591.50;10374925;28;20022;-77
2023/04/04 17:34:46;;;;;;;8.60;5.40;;;;;;;8.54;53.64;102593.50;10392674;28;20053;-76
2023/04/04 17:39:46;;;;;;;15.98;6.55;;;;;;;8.40;54.12;102599.31;10378142;28;20357;-76
2023/04/04 17:44:47;;;;;;;10.05;5.28;;;;;;;8.22;55.23;102591.03;10388528;28;20343;-76
2023/04/04 17:49:49;;;;;;;14.52;5.93;;;;;;;8.08;56.01;102596.84;10372936;28;20057;-76
2023/04/04 17:54:53;;;;;;;7.38;5.60;;;;;;;7.93;56.12;102599.09;10371606;28;20038;-76
2023/04/04 17:59:53;;;;;;;11.98;6.88;;;;;;;7.75;57.57;102611.50;10373524;28;20196;-76
2023/04/04 18:04:55;;;;;;;12.80;8.63;;;;;;;7.57;58.25;102611.31;10375020;28;20601;-79
2023/04/04 18:09:56;;;;;;;12.63;7.07;;;;;;;7.43;58.71;102617.91;10378960;28;20109;-81
2023/04/04 18:14:56;;;;;;;9.30;7.00;;;;;;;7.31;59.16;102609.09;10395005;28;20430;-79
2023/04/04 18:19:57;;;;;;;8.80;6.63;;;;;;;7.15;59.33;102616.81;10396234;28;20037;-77
2023/04/04 18:24:58;;;;;;;10.27;7.15;;;;;;;7.01;58.19;102614.44;10380118;28;20037;-76
2023/04/04 18:29:58;;;;;;;12.63;7.80;;;;;;;6.81;59.64;102608.06;10379360;28;20034;-77
2023/04/04 18:34:59;;;;;;;8.85;6.68;;;;;;;6.69;62.23;102620.72;10379209;28;20073;-76
2023/04/04 18:39:59;;;;;;;12.20;7.18;;;;;;;6.56;63.95;102612.81;10379283;28;20120;-76
2023/04/04 18:45:00;;;;;;;13.15;8.57;;;;;;;6.46;65.75;102619.97;10379101;28;20609;-76
2023/04/04 18:50:02;;;;;;;7.40;6.80;;;;;;;6.33;67.84;102619.28;10379209;28;20034;-75
2023/04/04 18:55:05;;;;;;;8.90;8.00;;;;;;;6.28;70.04;102631.25;10376388;28;20520;-78
2023/04/04 19:00:07;;;;;;;12.45;8.23;;;;;;;6.16;69.88;102621.53;10376781;28;20113;-78
2023/04/04 19:05:07;;;;;;;8.68;7.55;;;;;;;6.05;69.88;102619.72;10377288;28;20117;-77
2023/04/04 19:10:08;;;;;;;9.05;7.63;;;;;;;6.00;70.42;102627.31;10376134;28;20105;-77
2023/04/04 19:15:09;;;;;;;10.80;8.35;;;;;;;5.92;71.13;102613.59;10376228;28;20473;-78
2023/04/04 19:20:11;;;;;;;15.68;8.00;;;;;;;5.85;70.17;102628.53;10376222;28;20466;-77
2023/04/04 19:25:11;;;;;;;15.02;9.40;;;;;;;5.78;73.87;102622.81;10376616;28;20041;-79
2023/04/04 19:30:46;;;;;;;16.02;8.75;;;;;;;5.72;72.70;102617.91;10375150;28;20370;-79
2023/04/04 19:35:54;;;;;;;9.70;8.23;;;;;;;5.63;71.98;102623.19;10371363;28;20144;-78
2023/04/04 19:40:59;;;;;;;10.75;9.75;;;;;;;5.59;73.86;102622.56;10374898;28;20030;-78
2023/04/04 19:46:07;;;;;;;11.20;8.95;;;;;;;5.47;75.77;102619.03;10375205;28;20041;-79
2023/04/04 19:51:31;;;;;;;15.23;10.93;;;;;;;5.45;77.90;102609.38;10375584;28;20454;-79
2023/04/04 19:56:31;;;;;;;11.77;10.43;;;;;;;5.39;80.07;102612.53;10389519;28;20034;-76
2023/04/04 20:01:35;;;;;;;11.90;10.57;;;;;;;5.33;80.47;102612.06;10377472;28;20109;-82
2023/04/04 20:06:36;;;;;;;11.48;10.40;;;;;;;5.25;78.08;102614.50;10394204;28;20038;-76
2023/04/04 20:11:36;;;;;;;13.23;11.65;;;;;;;5.12;77.04;102609.22;10378216;28;20049;-78
2023/04/04 20:16:37;;;;;;;10.38;9.25;;;;;;;5.02;77.95;102610.06;10381931;28;20343;-74
2023/04/04 20:21:37;;;;;;;21.60;11.60;;;;;;;4.87;77.38;102610.25;10367774;28;20034;-78
2023/04/04 20:26:49;;;;;;;19.00;12.07;;;;;;;4.78;78.61;102607.44;10382503;28;20041;-76
2023/04/04 20:31:52;;;;;;;16.15;12.25;;;;;;;4.62;76.91;102610.44;10380045;28;20030;-79
2023/04/04 20:36:52;;;;;;;19.42;10.88;;;;;;;4.47;76.79;102611.59;10376645;28;20025;-77
2023/04/04 20:41:53;;;;;;;16.15;11.18;;;;;;;4.37;77.03;102604.25;10376031;28;20033;-76
2023/04/04 20:46:53;;;;;;;18.73;11.52;;;;;;;4.30;76.83;102605.66;10393384;28;20038;-75
2023/04/04 20:51:54;;;;;;;14.70;12.85;;;;;;;4.23;77.92;102591.00;10359667;28;20443;-74
2023/04/04 20:56:55;;;;;;;14.25;11.15;;;;;;;4.24;78.95;102595.41;10373042;28;20493;-75
2023/04/04 21:02:06;;;;;;;14.20;12.73;;;;;;;4.23;79.60;102587.47;10374486;28;20042;-75
2023/04/04 21:07:07;;;;;;;16.38;13.05;;;;;;;4.20;80.21;102570.63;10375691;28;20331;-76
2023/04/04 21:12:08;;;;;;;18.38;13.45;;;;;;;4.09;79.40;102578.66;10392602;28;20034;-76
2023/04/04 21:17:08;;;;;;;22.83;14.23;;;;;;;4.04;81.76;102588.00;10374342;28;20034;-76
2023/04/04 21:22:09;;;;;;;17.83;14.55;;;;;;;3.99;80.96;102579.41;10375255;28;20057;-75
2023/04/04 21:27:36;;;;;;;19.88;14.07;;;;;;;3.94;82.55;102583.31;10374488;28;20084;-75
2023/04/04 21:32:36;;;;;;;22.15;14.98;;;;;;;3.85;81.78;102577.75;10389343;28;20042;-76
2023/04/04 21:37:37;;;;;;;18.55;13.60;;;;;;;3.79;81.72;102571.03;10390095;28;20052;-75
2023/04/04 21:42:37;;;;;;;20.38;16.17;;;;;;;3.75;82.32;102577.59;10380585;28;20045;-76
2023/04/04 21:47:38;;;;;;;22.55;14.65;;;;;;;3.68;81.82;102573.66;10380952;28;20128;-75
2023/04/04 21:52:41;;;;;;;19.83;12.68;;;;;;;3.59;80.99;102574.31;10379809;28;20096;-75
2023/04/04 21:57:41;;;;;;;20.98;14.75;;;;;;;3.52;80.87;102575.72;10380939;28;20033;-76
2023/04/04 22:02:41;;;;;;;18.95;14.90;;;;;;;3.52;82.11;102587.28;10381226;28;20045;-76
2023/04/04 22:07:42;;;;;;;21.50;15.55;;;;;;;3.45;81.17;102581.53;10381221;28;20038;-76
2023/04/04 22:12:44;;;;;;;17.52;12.55;;;;;;;3.35;81.31;102583.16;10379178;28;20136;-78
2023/04/04 22:17:53;;;;;;;34.55;14.05;;;;;;;3.28;81.25;102583.66;10378343;28;20481;-75
2023/04/04 22:22:53;;;;;;;21.58;15.00;;;;;;;3.22;81.13;102583.16;10380469;28;20037;-77
2023/04/04 22:27:54;;;;;;;20.27;13.73;;;;;;;3.15;81.70;102578.31;10377505;28;20088;-76
2023/04/04 22:33:02;;;;;;;21.08;14.82;;;;;;;3.22;83.57;102563.53;10379381;28;20054;-76
2023/04/04 22:38:02;;;;;;;34.13;15.68;;;;;;;3.29;83.87;102554.13;10379326;28;20129;-75
2023/04/04 22:43:03;;;;;;;20.05;15.35;;;;;;;3.33;84.30;102560.13;10395048;28;20046;-75
2023/04/04 22:48:03;;;;;;;13.65;11.85;;;;;;;3.31;83.86;102554.84;10378586;28;20033;-76
2023/04/04 22:53:04;;;;;;;20.17;15.13;;;;;;;3.32;84.22;102551.22;10378694;28;20037;-75
2023/04/04 22:58:05;;;;;;;15.45;13.45;;;;;;;3.28;84.26;102551.53;10377532;28;20030;-75
2023/04/04 23:03:06;;;;;;;20.90;14.68;;;;;;;3.27;84.41;102548.00;10378201;28;20041;-78
2023/04/04 23:08:06;;;;;;;14.43;11.93;;;;;;;3.16;83.87;102547.91;10378050;28;20472;-76